createdAt,value
2019-05-22T00:02:32.490Z,81.91
2019-05-22T00:05:23.377Z,81.96
2019-05-22T00:08:11.046Z,81.96
2019-05-22T00:11:00.182Z,82.21
2019-05-22T00:13:48.111Z,82.49
2019-05-22T00:16:36.454Z,82.91
2019-05-22T00:19:24.680Z,83.06
2019-05-22T00:22:16.850Z,83.28
2019-05-22T00:25:05.780Z,83.41
2019-05-22T00:27:54.584Z,83.58
2019-05-22T00:30:42.715Z,83.59
2019-05-22T00:33:30.831Z,83.62
2019-05-22T00:36:18.474Z,83.74
2019-05-22T00:39:06.549Z,83.66
2019-05-22T00:41:53.941Z,83.28
2019-05-22T00:44:42.784Z,82.27
2019-05-22T00:47:31.956Z,81.52
2019-05-22T00:50:21.458Z,81.30
2019-05-22T00:53:27.410Z,80.75
2019-05-22T00:56:28.248Z,80.92
2019-05-22T00:59:19.146Z,80.99
2019-05-22T01:02:08.217Z,81.62
2019-05-22T01:04:56.195Z,82.25
2019-05-22T01:07:43.892Z,82.57
2019-05-22T01:10:31.532Z,83.10
2019-05-22T01:13:19.121Z,83.03
2019-05-22T01:16:09.029Z,83.05
2019-05-22T01:18:56.889Z,82.88
2019-05-22T01:21:45.958Z,82.91
2019-05-22T01:24:34.221Z,83.22
2019-05-22T01:27:21.686Z,83.11
2019-05-22T01:30:13.135Z,83.26
2019-05-22T01:33:02.178Z,83.40
2019-05-22T01:36:09.301Z,83.35
2019-05-22T01:38:56.972Z,83.62
2019-05-22T01:41:45.277Z,83.97
2019-05-22T01:44:33.580Z,83.61
2019-05-22T01:47:31.351Z,83.66
2019-05-22T01:50:39.136Z,83.91
2019-05-22T01:53:30.742Z,84.19
2019-05-22T01:56:19.503Z,84.29
2019-05-22T01:59:07.042Z,84.64
2019-05-22T02:01:54.548Z,84.92
2019-05-22T02:04:43.018Z,84.82
2019-05-22T02:07:30.596Z,84.86
2019-05-22T02:10:21.854Z,85.11
2019-05-22T02:13:10.127Z,85.51
2019-05-22T02:15:57.671Z,85.39
2019-05-22T02:18:45.152Z,85.23
2019-05-22T02:21:33.400Z,85.33
2019-05-22T02:24:21.208Z,85.68
2019-05-22T02:27:08.974Z,85.88
2019-05-22T02:29:57.218Z,85.88
2019-05-22T02:32:44.843Z,86.00
2019-05-22T02:35:32.722Z,85.83
2019-05-22T02:38:20.632Z,85.72
2019-05-22T02:41:08.417Z,85.84
2019-05-22T02:43:55.991Z,85.71
2019-05-22T02:46:43.516Z,85.63
2019-05-22T02:49:31.359Z,85.19
2019-05-22T02:52:20.328Z,85.08
2019-05-22T02:55:07.822Z,85.22
2019-05-22T02:57:55.371Z,84.64
2019-05-22T03:00:56.818Z,84.33
2019-05-22T03:03:44.560Z,84.34
2019-05-22T03:06:32.638Z,84.37
2019-05-22T03:09:29.589Z,84.90
2019-05-22T03:12:17.622Z,85.61
2019-05-22T03:15:07.211Z,85.84
2019-05-22T03:18:00.183Z,86.03
2019-05-22T03:20:49.007Z,86.08
2019-05-22T03:23:37.136Z,85.40
2019-05-22T03:26:25.666Z,85.47
2019-05-22T03:29:13.770Z,85.58
2019-05-22T03:32:01.380Z,85.41
2019-05-22T03:34:48.754Z,85.92
2019-05-22T03:37:36.943Z,86.17
2019-05-22T03:40:24.770Z,86.88
2019-05-22T03:43:16.688Z,87.02
2019-05-22T03:46:16.466Z,87.61
2019-05-22T03:49:04.276Z,87.83
2019-05-22T03:51:51.624Z,88.34
2019-05-22T03:54:39.934Z,88.42
2019-05-22T03:57:27.654Z,88.58
2019-05-22T04:00:16.116Z,88.71
2019-05-22T04:03:03.669Z,89.21
2019-05-22T04:05:51.430Z,89.44
2019-05-22T04:08:39.092Z,89.57
2019-05-22T04:11:30.208Z,89.04
2019-05-22T04:14:18.033Z,88.63
2019-05-22T04:17:06.562Z,87.53
2019-05-22T04:19:54.284Z,86.83
2019-05-22T04:22:42.410Z,86.19
2019-05-22T04:25:30.189Z,86.06
2019-05-22T04:28:17.935Z,86.23
2019-05-22T04:31:05.586Z,86.32
2019-05-22T04:33:53.754Z,87.03
2019-05-22T04:36:41.403Z,87.89
2019-05-22T04:39:28.809Z,88.14
2019-05-22T04:42:16.559Z,88.89
2019-05-22T04:45:13.738Z,89.21
2019-05-22T04:48:01.741Z,89.62
2019-05-22T04:50:50.674Z,90.03
2019-05-22T04:53:38.297Z,89.79
2019-05-22T04:56:27.383Z,90.15
2019-05-22T04:59:15.074Z,90.24
2019-05-22T05:02:02.707Z,90.29
2019-05-22T05:04:50.893Z,89.92
2019-05-22T05:07:38.513Z,89.56
2019-05-22T05:10:26.172Z,89.06
2019-05-22T05:13:13.553Z,88.88
2019-05-22T05:16:01.083Z,89.15
2019-05-22T05:18:48.726Z,89.26
2019-05-22T05:21:37.757Z,89.59
2019-05-22T05:24:25.921Z,89.63
2019-05-22T05:27:13.956Z,89.28
2019-05-22T05:30:01.500Z,88.92
2019-05-22T05:32:49.855Z,88.96
2019-05-22T05:35:38.120Z,88.98
2019-05-22T05:38:31.441Z,88.83
2019-05-22T05:41:19.271Z,88.51
2019-05-22T05:44:06.710Z,87.94
2019-05-22T05:46:54.362Z,87.86
2019-05-22T05:49:42.256Z,87.86
2019-05-22T05:52:30.080Z,87.22
2019-05-22T05:55:18.105Z,86.73
2019-05-22T05:58:23.397Z,86.81
2019-05-22T06:01:18.913Z,86.97
2019-05-22T06:04:06.747Z,86.79
2019-05-22T06:07:17.416Z,87.05
2019-05-22T06:10:33.455Z,87.55
2019-05-22T06:13:21.727Z,88.01
2019-05-22T06:17:00.443Z,88.48
2019-05-22T06:19:48.091Z,88.75
2019-05-22T06:22:35.829Z,89.14
2019-05-22T06:25:23.428Z,89.58
2019-05-22T06:28:11.483Z,89.40
2019-05-22T06:30:59.177Z,89.01
2019-05-22T06:33:46.985Z,89.11
2019-05-22T06:36:35.123Z,89.02
2019-05-22T06:39:22.907Z,89.51
2019-05-22T06:42:10.499Z,89.79
2019-05-22T06:44:58.185Z,90.84
2019-05-22T06:47:45.763Z,89.44
2019-05-22T06:50:33.804Z,89.29
2019-05-22T06:53:21.263Z,89.97
2019-05-22T06:56:08.931Z,90.27
2019-05-22T06:58:56.607Z,90.42
2019-05-22T07:01:44.221Z,90.39
2019-05-22T07:04:31.867Z,90.22
2019-05-22T07:07:20.638Z,90.22
2019-05-22T07:10:09.020Z,89.61
2019-05-22T07:12:56.795Z,89.35
2019-05-22T07:15:44.775Z,88.58
2019-05-22T07:18:32.988Z,88.74
2019-05-22T07:21:33.383Z,88.45
2019-05-22T07:24:08.954Z,87.99
2019-05-22T07:26:58.017Z,88.16
2019-05-22T07:29:46.057Z,88.40
2019-05-22T07:32:33.753Z,87.81
2019-05-22T07:35:21.977Z,87.86
2019-05-22T07:38:09.972Z,87.81
2019-05-22T07:40:57.744Z,87.84
2019-05-22T07:43:45.630Z,88.32
2019-05-22T07:46:33.321Z,90.09
2019-05-22T07:49:20.746Z,87.70
2019-05-22T07:52:08.741Z,88.32
2019-05-22T07:54:56.240Z,88.61
2019-05-22T07:57:43.859Z,89.23
2019-05-22T08:00:32.083Z,89.60
2019-05-22T08:03:20.212Z,89.85
2019-05-22T08:06:08.481Z,89.91
2019-05-22T08:08:56.003Z,89.77
2019-05-22T08:11:43.537Z,89.49
2019-05-22T08:14:31.407Z,89.47
2019-05-22T08:17:19.328Z,89.56
2019-05-22T08:20:06.773Z,89.73
2019-05-22T08:22:54.961Z,89.05
2019-05-22T08:25:43.166Z,89.23
2019-05-22T08:28:31.791Z,89.42
2019-05-22T08:31:19.267Z,89.31
2019-05-22T08:34:07.151Z,88.24
2019-05-22T08:36:54.735Z,87.75
2019-05-22T08:39:42.711Z,87.43
2019-05-22T08:42:30.540Z,87.72
2019-05-22T08:45:17.961Z,87.43
2019-05-22T08:48:05.409Z,87.19
2019-05-22T08:50:53.699Z,87.48
2019-05-22T08:53:47.598Z,88.05
2019-05-22T08:56:30.085Z,88.26
2019-05-22T08:59:19.851Z,86.54
2019-05-22T09:02:06.181Z,86.48
2019-05-22T09:04:54.603Z,85.85
2019-05-22T09:07:42.972Z,85.26
2019-05-22T09:10:30.376Z,84.46
2019-05-22T09:13:18.653Z,84.76
2019-05-22T09:16:06.560Z,84.32
2019-05-22T09:18:54.365Z,84.17
2019-05-22T09:21:42.205Z,82.86
2019-05-22T09:24:30.624Z,82.15
2019-05-22T09:27:18.384Z,82.12
2019-05-22T09:30:06.650Z,82.54
2019-05-22T09:32:54.189Z,82.13
2019-05-22T09:35:42.511Z,81.95
2019-05-22T09:38:30.049Z,82.23
2019-05-22T09:41:17.739Z,82.24
2019-05-22T09:44:05.834Z,82.58
2019-05-22T09:46:54.031Z,82.90
2019-05-22T09:49:41.937Z,83.02
2019-05-22T09:52:29.666Z,83.41
2019-05-22T09:55:17.437Z,83.33
2019-05-22T09:58:05.153Z,83.00
2019-05-22T10:00:53.278Z,82.65
2019-05-22T10:03:41.494Z,82.30
2019-05-22T10:06:29.856Z,82.09
2019-05-22T10:09:18.127Z,81.60
2019-05-22T10:12:06.433Z,80.79
2019-05-22T10:14:55.074Z,81.44
2019-05-22T10:17:43.855Z,81.52
2019-05-22T10:20:31.260Z,81.32
2019-05-22T10:23:19.216Z,81.55
2019-05-22T10:26:07.544Z,81.47
2019-05-22T10:28:55.815Z,81.46
2019-05-22T10:31:43.949Z,81.48
2019-05-22T10:34:32.337Z,82.30
2019-05-22T10:37:20.093Z,82.06
2019-05-22T10:40:07.985Z,81.98
2019-05-22T10:42:55.570Z,82.35
2019-05-22T10:45:43.269Z,82.04
2019-05-22T10:48:31.496Z,81.33
2019-05-22T10:51:18.944Z,80.39
2019-05-22T10:54:06.674Z,78.64
2019-05-22T10:56:55.059Z,78.24
2019-05-22T10:59:42.463Z,76.82
2019-05-22T11:02:30.340Z,76.22
2019-05-22T11:05:19.783Z,74.87
2019-05-22T11:08:07.390Z,75.44
2019-05-22T11:10:54.915Z,74.38
2019-05-22T11:13:59.368Z,74.07
2019-05-22T11:16:31.495Z,73.67
2019-05-22T11:19:19.649Z,72.75
2019-05-22T11:22:07.357Z,72.42
2019-05-22T11:24:54.907Z,70.83
2019-05-22T11:27:42.502Z,71.35
2019-05-22T11:30:30.257Z,71.82
2019-05-22T11:33:17.780Z,72.65
2019-05-22T11:36:05.338Z,72.74
2019-05-22T11:38:52.838Z,72.32
2019-05-22T11:41:41.003Z,72.13
2019-05-22T11:44:29.303Z,71.91
2019-05-22T11:47:17.054Z,72.90
2019-05-22T11:50:05.404Z,72.42
2019-05-22T11:52:52.757Z,70.90
2019-05-22T11:55:44.883Z,69.36
2019-05-22T11:58:28.591Z,68.60
2019-05-22T12:01:16.427Z,68.45
2019-05-22T12:04:04.289Z,68.31
2019-05-22T12:06:53.754Z,68.99
2019-05-22T12:09:39.957Z,68.26
2019-05-22T12:12:27.469Z,68.79
2019-05-22T12:15:15.621Z,69.71
2019-05-22T12:18:03.824Z,70.38
2019-05-22T12:20:51.619Z,70.03
2019-05-22T12:23:40.057Z,71.00
2019-05-22T12:26:27.623Z,70.44
2019-05-22T12:29:17.426Z,69.31
2019-05-22T12:32:02.995Z,69.34
2019-05-22T12:34:51.024Z,69.05
2019-05-22T12:37:38.941Z,68.27
2019-05-22T12:40:26.862Z,67.94
2019-05-22T12:43:14.930Z,67.35
2019-05-22T12:46:02.974Z,67.82
2019-05-22T12:48:50.535Z,67.95
2019-05-22T12:51:38.640Z,67.40
2019-05-22T12:54:26.135Z,66.04
2019-05-22T12:57:13.939Z,67.14
2019-05-22T13:00:02.796Z,67.28
2019-05-22T13:02:49.026Z,66.42
2019-05-22T13:05:36.552Z,66.28
2019-05-22T13:08:24.484Z,65.50
2019-05-22T13:11:12.457Z,64.95
2019-05-22T13:14:00.071Z,64.90
2019-05-22T13:16:49.166Z,63.22
2019-05-22T13:19:35.490Z,62.87
2019-05-22T13:22:24.853Z,60.44
2019-05-22T13:25:12.487Z,59.63
2019-05-22T13:28:00.391Z,57.54
2019-05-22T13:30:48.721Z,57.10
2019-05-22T13:33:36.211Z,56.01
2019-05-22T13:36:23.783Z,56.48
2019-05-22T13:39:11.205Z,55.29
2019-05-22T13:41:59.236Z,55.91
2019-05-22T13:44:46.693Z,56.71
2019-05-22T13:47:34.453Z,57.08
2019-05-22T13:50:22.252Z,56.90
2019-05-22T13:53:09.786Z,56.55
2019-05-22T13:55:58.215Z,53.05
2019-05-22T13:58:46.020Z,51.53
2019-05-22T14:01:33.808Z,51.02
2019-05-22T14:04:21.325Z,51.07
2019-05-22T14:07:09.119Z,51.25
2019-05-22T14:09:57.491Z,51.88
2019-05-22T14:12:45.156Z,51.87
2019-05-22T14:15:48.917Z,52.16
2019-05-22T14:18:21.689Z,50.35
2019-05-22T14:21:09.963Z,51.42
2019-05-22T14:23:57.623Z,50.14
2019-05-22T14:26:45.100Z,49.63
2019-05-22T14:29:32.878Z,50.50
2019-05-22T14:32:20.711Z,49.89
2019-05-22T14:35:08.270Z,50.29
2019-05-22T14:37:55.837Z,50.73
2019-05-22T14:40:43.704Z,51.85
2019-05-22T14:43:31.340Z,51.46
2019-05-22T14:46:19.778Z,51.45
2019-05-22T14:49:07.626Z,50.34
2019-05-22T14:51:54.933Z,51.28
2019-05-22T14:54:43.410Z,50.54
2019-05-22T14:57:31.449Z,51.66
2019-05-22T15:00:19.168Z,50.94
2019-05-22T15:03:06.839Z,50.97
2019-05-22T15:05:54.956Z,49.03
2019-05-22T15:08:42.352Z,49.66
2019-05-22T15:11:30.438Z,50.68
2019-05-22T15:14:18.167Z,50.27
2019-05-22T15:17:06.045Z,51.10
2019-05-22T15:19:54.083Z,51.29
2019-05-22T15:22:41.750Z,52.02
2019-05-22T15:25:29.424Z,52.29
2019-05-22T15:28:17.335Z,51.20
2019-05-22T15:31:04.943Z,50.87
2019-05-22T15:33:52.801Z,50.22
2019-05-22T15:36:41.191Z,51.12
2019-05-22T15:39:29.015Z,52.11
2019-05-22T15:42:39.119Z,52.47
2019-05-22T15:45:26.799Z,51.53
2019-05-22T15:48:17.409Z,48.89
2019-05-22T15:51:05.734Z,47.51
2019-05-22T15:53:54.375Z,45.79
2019-05-22T15:56:41.862Z,45.40
2019-05-22T15:59:31.877Z,45.38
2019-05-22T16:02:21.485Z,46.54
2019-05-22T16:05:05.615Z,48.50
2019-05-22T16:07:52.995Z,50.41
2019-05-22T16:10:40.628Z,52.07
2019-05-22T16:13:29.481Z,52.36
2019-05-22T16:16:16.761Z,52.73
2019-05-22T16:19:05.725Z,53.02
2019-05-22T16:21:54.166Z,53.73
2019-05-22T16:24:41.962Z,53.39
2019-05-22T16:27:30.122Z,52.75
2019-05-22T16:30:17.645Z,49.82
2019-05-22T16:33:05.823Z,48.18
2019-05-22T16:35:53.866Z,47.29
2019-05-22T16:38:41.782Z,46.62
2019-05-22T16:41:29.603Z,45.00
2019-05-22T16:44:17.617Z,43.15
2019-05-22T16:47:05.154Z,44.12
2019-05-22T16:49:52.740Z,43.35
2019-05-22T16:52:41.025Z,42.55
2019-05-22T16:55:29.064Z,43.80
2019-05-22T16:58:16.753Z,45.28
2019-05-22T17:01:04.379Z,46.49
2019-05-22T17:03:52.914Z,47.30
2019-05-22T17:06:41.680Z,47.40
2019-05-22T17:09:29.604Z,45.00
2019-05-22T17:12:17.549Z,42.56
2019-05-22T17:15:05.701Z,40.07
2019-05-22T17:17:53.350Z,39.33
2019-05-22T17:20:40.936Z,40.13
2019-05-22T17:23:28.630Z,41.40
2019-05-22T17:26:16.530Z,41.84
2019-05-22T17:29:04.359Z,42.76
2019-05-22T17:31:51.674Z,43.15
2019-05-22T17:34:39.240Z,43.40
2019-05-22T17:37:26.808Z,44.33
2019-05-22T17:40:14.764Z,44.87
2019-05-22T17:43:02.968Z,44.53
2019-05-22T17:45:50.943Z,43.84
2019-05-22T17:48:39.575Z,43.89
2019-05-22T17:51:27.607Z,43.99
2019-05-22T17:54:16.067Z,44.66
2019-05-22T17:57:03.544Z,44.76
2019-05-22T17:59:51.994Z,44.81
2019-05-22T18:02:40.192Z,44.92
2019-05-22T18:05:28.407Z,45.73
2019-05-22T18:08:16.397Z,45.75
2019-05-22T18:11:04.637Z,46.36
2019-05-22T18:14:01.384Z,47.81
2019-05-22T18:16:48.955Z,47.50
2019-05-22T18:19:37.181Z,46.58
2019-05-22T18:22:24.806Z,46.54
2019-05-22T18:25:12.474Z,46.30
2019-05-22T18:28:00.249Z,46.92
2019-05-22T18:30:48.005Z,47.41
2019-05-22T18:33:35.549Z,48.14
2019-05-22T18:36:23.477Z,47.60
2019-05-22T18:39:11.257Z,47.46
2019-05-22T18:41:59.656Z,48.21
2019-05-22T18:44:47.384Z,48.31
2019-05-22T18:47:35.129Z,48.93
2019-05-22T18:50:22.750Z,49.43
2019-05-22T18:53:11.015Z,50.85
2019-05-22T18:55:58.573Z,51.73
2019-05-22T18:58:46.069Z,52.49
2019-05-22T19:01:33.952Z,53.23
2019-05-22T19:04:21.746Z,54.20
2019-05-22T19:07:09.478Z,54.67
2019-05-22T19:09:57.085Z,55.33
2019-05-22T19:12:45.427Z,56.33
2019-05-22T19:15:33.107Z,57.63
2019-05-22T19:18:21.411Z,58.67
2019-05-22T19:21:09.359Z,59.20
2019-05-22T19:23:56.996Z,59.95
2019-05-22T19:26:44.720Z,60.54
2019-05-22T19:29:32.684Z,61.16
2019-05-22T19:32:20.313Z,61.67
2019-05-22T19:35:08.238Z,62.40
2019-05-22T19:37:56.433Z,63.31
2019-05-22T19:40:44.679Z,64.02
2019-05-22T19:43:32.244Z,64.79
2019-05-22T19:46:20.343Z,65.46
2019-05-22T19:49:08.668Z,65.97
2019-05-22T19:51:56.338Z,66.62
2019-05-22T19:54:44.350Z,67.31
2019-05-22T19:57:32.767Z,67.81
2019-05-22T20:00:20.422Z,67.95
2019-05-22T20:03:08.366Z,68.36
2019-05-22T20:05:56.244Z,69.06
2019-05-22T20:08:44.262Z,69.39
2019-05-22T20:11:32.046Z,69.59
2019-05-22T20:14:20.201Z,69.83
2019-05-22T20:17:08.567Z,70.06
2019-05-22T20:19:56.778Z,70.34
2019-05-22T20:22:45.135Z,70.98
2019-05-22T20:25:33.092Z,71.45
2019-05-22T20:28:21.170Z,71.57
2019-05-22T20:31:09.228Z,71.66
2019-05-22T20:33:56.994Z,71.96
2019-05-22T20:36:44.580Z,72.20
2019-05-22T20:39:32.177Z,72.31
2019-05-22T20:42:20.440Z,72.39
2019-05-22T20:45:08.788Z,72.46
2019-05-22T20:48:08.469Z,72.50
2019-05-22T20:50:56.925Z,72.57
2019-05-22T20:53:54.060Z,72.64
2019-05-22T20:56:32.889Z,72.72
2019-05-22T20:59:21.401Z,72.69
2019-05-22T21:02:08.931Z,72.59
2019-05-22T21:04:56.721Z,72.39
2019-05-22T21:07:47.262Z,72.40
2019-05-22T21:10:34.983Z,72.33
2019-05-22T21:13:23.095Z,72.78
2019-05-22T21:16:11.310Z,73.19
2019-05-22T21:18:58.572Z,73.75
2019-05-22T21:21:46.740Z,73.96
2019-05-22T21:24:36.366Z,74.25
2019-05-22T21:27:23.138Z,74.54
2019-05-22T21:30:11.346Z,74.89
2019-05-22T21:32:59.468Z,75.08
2019-05-22T21:35:47.472Z,75.54
2019-05-22T21:38:35.691Z,75.66
2019-05-22T21:41:23.346Z,75.79
2019-05-22T21:44:10.907Z,76.01
2019-05-22T21:46:59.137Z,76.28
2019-05-22T21:49:46.757Z,76.42
2019-05-22T21:52:35.304Z,76.66
2019-05-22T21:55:22.794Z,77.15
2019-05-22T21:58:11.090Z,77.44
2019-05-22T22:01:24.299Z,77.42
2019-05-22T22:04:17.652Z,77.87
2019-05-22T22:07:05.166Z,77.85
2019-05-22T22:09:53.548Z,78.29
2019-05-22T22:12:41.462Z,78.27
2019-05-22T22:15:29.580Z,78.66
2019-05-22T22:18:17.534Z,78.83
2019-05-22T22:21:04.852Z,79.16
2019-05-22T22:23:53.262Z,79.33
2019-05-22T22:26:41.348Z,79.24
2019-05-22T22:29:29.099Z,79.53
2019-05-22T22:32:17.192Z,79.79
2019-05-22T22:35:05.244Z,79.77
2019-05-22T22:37:52.745Z,79.87
2019-05-22T22:40:40.750Z,80.27
2019-05-22T22:43:28.672Z,80.32
2019-05-22T22:46:21.232Z,80.38
2019-05-22T22:49:10.260Z,80.43
2019-05-22T22:51:58.184Z,80.62
2019-05-22T22:54:45.919Z,81.13
2019-05-22T22:57:33.814Z,80.70
2019-05-22T23:00:25.291Z,80.68
2019-05-22T23:03:12.874Z,81.23
2019-05-22T23:06:00.400Z,81.22
2019-05-22T23:08:48.597Z,81.25
2019-05-22T23:11:36.851Z,81.39
2019-05-22T23:14:25.786Z,81.62
2019-05-22T23:17:13.401Z,81.61
2019-05-22T23:19:59.972Z,81.67
2019-05-22T23:22:46.411Z,81.39
2019-05-22T23:25:34.201Z,82.33
2019-05-22T23:28:34.183Z,82.06
2019-05-22T23:31:10.466Z,82.21
2019-05-22T23:33:58.456Z,82.72
2019-05-22T23:36:47.015Z,83.23
2019-05-22T23:39:34.630Z,82.63
2019-05-22T23:42:27.746Z,82.42
2019-05-22T23:45:16.903Z,82.76
2019-05-22T23:48:17.543Z,82.79
2019-05-22T23:51:05.573Z,82.69
2019-05-22T23:53:53.216Z,82.54
2019-05-22T23:56:40.846Z,82.31
2019-05-22T23:59:28.674Z,82.34
